Robijn — PBEJ — position and weather

sailwx.info

Track history (hours):
 
Tides and Currents Weather Stations Pressure Air Temp Water Temp Dewpoint Dewpoint Depression Visibility Wind Speed Wind Dir Waves Ship Positions

Robijn

Last reported at 2014-Nov-23 10:33 UTC. Time now 2014-Nov-23 13:20 UTC.
Position N 54°55' E 013°17'.

Length 90 m; draft 5.2 m.

Type: Cargo ship. MMSI: 245909000.

Date/timePositionNaut miles runAvg speedWind from/ knotsBaromVisibWave heightAir tempDewpointWater temp
2014-Nov-23 10:33N 54°55' E 013°17'1310.1
2014-Nov-23 09:19N 54°59' E 013°37'22 9.8
2014-Nov-23 07:04N 55°10' E 014°11'5 9.9
2014-Nov-23 06:33N 55°14' E 014°17'11 9.9
2014-Nov-23 05:26N 55°23' E 014°28'910.1
2014-Nov-23 04:30N 55°29' E 014°41'1010.2
2014-Nov-23 03:33N 55°34' E 014°55'4410.6
2014-Nov-22 23:21N 55°56' E 016°04'910.8
2014-Nov-22 22:33N 56°00' E 016°17'33510.5
2014-Nov-21 14:32N 59°37' E 024°17'1010.3
2014-Nov-21 13:33N 59°41' E 024°35'1110.3
2014-Nov-21 12:31N 59°44' E 024°56'51 4.6
2014-Nov-21 01:31N 59°32' E 026°33'0 0.0
2014-Nov-21 00:32N 59°32' E 026°33'0 0.0
2014-Nov-20 23:28N 59°32' E 026°33'0 0.0
2014-Nov-20 22:24N 59°32' E 026°33'0 0.0
2014-Nov-20 21:16N 59°32' E 026°33'0 0.0
2014-Nov-20 20:33N 59°32' E 026°33'0 0.0
2014-Nov-20 19:25N 59°32' E 026°33'0 0.0
2014-Nov-20 18:32N 59°32' E 026°33'0 0.0
2014-Nov-20 17:24N 59°32' E 026°33'0 0.0
2014-Nov-20 16:32N 59°32' E 026°33'0 0.0
2014-Nov-20 15:31N 59°32' E 026°33'0 0.0
2014-Nov-20 12:30N 59°32' E 026°33'0 0.0
2014-Nov-20 11:33N 59°32' E 026°33'0 0.0
2014-Nov-20 10:33N 59°32' E 026°33'2 2.0
2014-Nov-20 09:26N 59°34' E 026°31'2 1.7
2014-Nov-20 08:34N 59°35' E 026°29'0 0.0
2014-Nov-20 07:29N 59°35' E 026°29'5 2.1
2014-Nov-20 05:04N 59°40' E 026°27'4 6.9
2014-Nov-20 04:33N 59°42' E 026°22'9 6.9
2014-Nov-20 03:19N 59°47' E 026°08'6 7.0
2014-Nov-20 02:26N 59°50' E 025°58'6 6.2
2014-Nov-20 01:25N 59°51' E 025°45'8 6.8
2014-Nov-20 00:13N 59°50' E 025°29'6 7.0
2014-Nov-19 23:22N 59°48' E 025°17'15 6.5
2014-Nov-19 21:03N 59°45' E 024°48'3 6.5
2014-Nov-19 20:33N 59°45' E 024°42'7 7.4
2014-Nov-19 19:33N 59°43' E 024°27'16 7.4
2014-Nov-19 17:25N 59°38' E 023°58'7 7.5
2014-Nov-19 16:31N 59°36' E 023°45'7 7.6
2014-Nov-19 15:33N 59°33' E 023°32'  
2014-Nov-16 05:26N 57°16' E 017°40'7 8.6
2014-Nov-16 04:33N 57°09' E 017°36'127 7.3
2014-Nov-15 11:09N 55°32' E 015°09'5 7.7
2014-Nov-15 10:33N 55°30' E 015°01'8 8.1
2014-Nov-15 09:33N 55°26' E 014°49'8 8.1
2014-Nov-15 08:33N 55°21' E 014°37'9 8.6
2014-Nov-15 07:33N 55°15' E 014°28'8 8.5
2014-Nov-15 06:33N 55°08' E 014°19'8 8.1
2014-Nov-15 05:33N 55°02' E 014°10'48 7.9
2014-Nov-14 23:30N 54°44' E 012°53'8 8.2
2014-Nov-14 22:33N 54°39' E 012°41'16 7.8
2014-Nov-14 20:33N 54°31' E 012°18'9 7.3
2014-Nov-14 19:15N 54°24' E 012°08'5 7.6
2014-Nov-14 18:33N 54°24' E 011°59'8 7.8
2014-Nov-14 17:31N 54°25' E 011°45'37 7.5
2014-Nov-14 12:33N 54°33' E 010°43'9 8.5
2014-Nov-14 11:33N 54°31' E 010°29'8 8.4
2014-Nov-14 10:33N 54°28' E 010°16'7 7.0
2014-Nov-14 09:33N 54°22' E 010°09'4 3.9
2014-Nov-14 08:32N 54°22' E 010°02'7 7.6
2014-Nov-14 07:33N 54°22' E 009°49'8 7.7
2014-Nov-14 06:33N 54°17' E 009°39'8 7.8
2014-Nov-14 05:33N 54°11' E 009°30'8 7.8
2014-Nov-14 04:33N 54°06' E 009°20'9 8.6
2014-Nov-14 03:33N 53°58' E 009°15'6 5.8
2014-Nov-14 02:34N 53°54' E 009°09'8 7.7
2014-Nov-14 01:33N 53°51' E 008°57'10 9.5
2014-Nov-14 00:33N 53°54' E 008°41'10 9.8
2014-Nov-13 23:33N 53°59' E 008°27'1010.1
2014-Nov-13 22:33N 53°59' E 008°10'10 9.8
2014-Nov-13 21:33N 53°57' E 007°54'9 9.2
2014-Nov-13 20:33N 53°55' E 007°38'10 8.7
2014-Nov-13 19:25N 53°52' E 007°22'10 8.5
2014-Nov-13 18:17N 53°50' E 007°06'6 8.5
2014-Nov-13 17:33N 53°49' E 006°56'12 8.7
2014-Nov-13 16:14N 53°46' E 006°37'8 9.0
2014-Nov-13 15:20N 53°44' E 006°24'7 9.3
2014-Nov-13 14:33N 53°42' E 006°12'10 9.6
2014-Nov-13 13:33N 53°39' E 005°57'1010.0
2014-Nov-13 12:33N 53°35' E 005°41'1010.4
2014-Nov-13 11:33N 53°33' E 005°24'1110.7
2014-Nov-13 10:33N 53°29' E 005°07'  
Track history (hours):
 
Tides and Currents Weather Stations Pressure Air Temp Water Temp Dewpoint Dewpoint Depression Visibility Wind Speed Wind Dir Waves Ship Positions

Robijn

Last reported at 2014-Nov-23 10:33 UTC. Time now 2014-Nov-23 13:20 UTC.
Position N 54°55' E 013°17'.

Length 90 m; draft 5.2 m.

Type: Cargo ship. MMSI: 245909000.

Date/timePositionNaut miles runAvg speedWind from/ knotsBaromVisibWave heightAir tempDewpointWater temp
2014-Nov-23 10:33N 54°55' E 013°17'1310.1
2014-Nov-23 09:19N 54°59' E 013°37'22 9.8
2014-Nov-23 07:04N 55°10' E 014°11'5 9.9
2014-Nov-23 06:33N 55°14' E 014°17'11 9.9
2014-Nov-23 05:26N 55°23' E 014°28'910.1
2014-Nov-23 04:30N 55°29' E 014°41'1010.2
2014-Nov-23 03:33N 55°34' E 014°55'4410.6
2014-Nov-22 23:21N 55°56' E 016°04'910.8
2014-Nov-22 22:33N 56°00' E 016°17'33510.5
2014-Nov-21 14:32N 59°37' E 024°17'1010.3
2014-Nov-21 13:33N 59°41' E 024°35'1110.3
2014-Nov-21 12:31N 59°44' E 024°56'51 4.6
2014-Nov-21 01:31N 59°32' E 026°33'0 0.0
2014-Nov-21 00:32N 59°32' E 026°33'0 0.0
2014-Nov-20 23:28N 59°32' E 026°33'0 0.0
2014-Nov-20 22:24N 59°32' E 026°33'0 0.0
2014-Nov-20 21:16N 59°32' E 026°33'0 0.0
2014-Nov-20 20:33N 59°32' E 026°33'0 0.0
2014-Nov-20 19:25N 59°32' E 026°33'0 0.0
2014-Nov-20 18:32N 59°32' E 026°33'0 0.0
2014-Nov-20 17:24N 59°32' E 026°33'0 0.0
2014-Nov-20 16:32N 59°32' E 026°33'0 0.0
2014-Nov-20 15:31N 59°32' E 026°33'0 0.0
2014-Nov-20 12:30N 59°32' E 026°33'0 0.0
2014-Nov-20 11:33N 59°32' E 026°33'0 0.0
2014-Nov-20 10:33N 59°32' E 026°33'2 2.0
2014-Nov-20 09:26N 59°34' E 026°31'2 1.7
2014-Nov-20 08:34N 59°35' E 026°29'0 0.0
2014-Nov-20 07:29N 59°35' E 026°29'5 2.1
2014-Nov-20 05:04N 59°40' E 026°27'4 6.9
2014-Nov-20 04:33N 59°42' E 026°22'9 6.9
2014-Nov-20 03:19N 59°47' E 026°08'6 7.0
2014-Nov-20 02:26N 59°50' E 025°58'6 6.2
2014-Nov-20 01:25N 59°51' E 025°45'8 6.8
2014-Nov-20 00:13N 59°50' E 025°29'6 7.0
2014-Nov-19 23:22N 59°48' E 025°17'15 6.5
2014-Nov-19 21:03N 59°45' E 024°48'3 6.5
2014-Nov-19 20:33N 59°45' E 024°42'7 7.4
2014-Nov-19 19:33N 59°43' E 024°27'16 7.4
2014-Nov-19 17:25N 59°38' E 023°58'7 7.5
2014-Nov-19 16:31N 59°36' E 023°45'7 7.6
2014-Nov-19 15:33N 59°33' E 023°32'  
2014-Nov-16 05:26N 57°16' E 017°40'7 8.6
2014-Nov-16 04:33N 57°09' E 017°36'127 7.3
2014-Nov-15 11:09N 55°32' E 015°09'5 7.7
2014-Nov-15 10:33N 55°30' E 015°01'8 8.1
2014-Nov-15 09:33N 55°26' E 014°49'8 8.1
2014-Nov-15 08:33N 55°21' E 014°37'9 8.6
2014-Nov-15 07:33N 55°15' E 014°28'8 8.5
2014-Nov-15 06:33N 55°08' E 014°19'8 8.1
2014-Nov-15 05:33N 55°02' E 014°10'48 7.9
2014-Nov-14 23:30N 54°44' E 012°53'8 8.2
2014-Nov-14 22:33N 54°39' E 012°41'16 7.8
2014-Nov-14 20:33N 54°31' E 012°18'9 7.3
2014-Nov-14 19:15N 54°24' E 012°08'5 7.6
2014-Nov-14 18:33N 54°24' E 011°59'8 7.8
2014-Nov-14 17:31N 54°25' E 011°45'37 7.5
2014-Nov-14 12:33N 54°33' E 010°43'9 8.5
2014-Nov-14 11:33N 54°31' E 010°29'8 8.4
2014-Nov-14 10:33N 54°28' E 010°16'7 7.0
2014-Nov-14 09:33N 54°22' E 010°09'4 3.9
2014-Nov-14 08:32N 54°22' E 010°02'7 7.6
2014-Nov-14 07:33N 54°22' E 009°49'8 7.7
2014-Nov-14 06:33N 54°17' E 009°39'8 7.8
2014-Nov-14 05:33N 54°11' E 009°30'8 7.8
2014-Nov-14 04:33N 54°06' E 009°20'9 8.6
2014-Nov-14 03:33N 53°58' E 009°15'6 5.8
2014-Nov-14 02:34N 53°54' E 009°09'8 7.7
2014-Nov-14 01:33N 53°51' E 008°57'10 9.5
2014-Nov-14 00:33N 53°54' E 008°41'10 9.8
2014-Nov-13 23:33N 53°59' E 008°27'1010.1
2014-Nov-13 22:33N 53°59' E 008°10'10 9.8
2014-Nov-13 21:33N 53°57' E 007°54'9 9.2
2014-Nov-13 20:33N 53°55' E 007°38'10 8.7
2014-Nov-13 19:25N 53°52' E 007°22'10 8.5
2014-Nov-13 18:17N 53°50' E 007°06'6 8.5
2014-Nov-13 17:33N 53°49' E 006°56'12 8.7
2014-Nov-13 16:14N 53°46' E 006°37'8 9.0
2014-Nov-13 15:20N 53°44' E 006°24'7 9.3
2014-Nov-13 14:33N 53°42' E 006°12'10 9.6
2014-Nov-13 13:33N 53°39' E 005°57'1010.0
2014-Nov-13 12:33N 53°35' E 005°41'1010.4
2014-Nov-13 11:33N 53°33' E 005°24'1110.7
2014-Nov-13 10:33N 53°29' E 005°07'  

Dump ship's entire track history